EW2719 Morke DK current weather conditions

sailwx.info

Wind from 045

Air temperature 21.1° C
Dewpoint 14.5° C

Last reported at 2020-Aug-09 07:01 UTC.
Time now 2020-Aug-09 08:03 UTC

Location: N 56°23' E 010°20'.
View on Google Maps.

See reports from other nearby stations

  
Tides and Currents Weather Stations Pressure Air Temp Water Temp Dewpoint Dewpoint Depression Visibility Wind Speed Wind Dir Waves Ship Positions
date/time (UTC)wind fromknots sea level pressurealtimeterstation pressurevisibilityair tempwater tempwave heightnotes
2020-Aug-09 07:01 045 21.1
2020-Aug-09 06:45 315 0 gusting 2 21.1
2020-Aug-09 06:30 015 0 gusting 3 20.6
2020-Aug-09 06:15 319 0 gusting 3 20.0
2020-Aug-09 06:00 315 0 gusting 2 19.4
2020-Aug-09 05:45 313 18.3
2020-Aug-09 05:32 300 1 gusting 5 17.2
2020-Aug-09 05:16 296 1 gusting 4 16.7
2020-Aug-09 05:01 292 1 gusting 3 16.1
2020-Aug-09 04:47 283 4 gusting 5 16.1
2020-Aug-09 04:31 323 16.1
2020-Aug-09 04:16 327 15.6
2020-Aug-09 04:01 327 15.6
2020-Aug-09 03:47 327 15.6
2020-Aug-09 03:31 327 15.6
2020-Aug-09 03:16 327 0 gusting 1 15.6
2020-Aug-09 03:00 329 15.6
2020-Aug-09 02:46 329 15.6
2020-Aug-09 02:30 329 16.1
2020-Aug-09 02:16 329 16.7
2020-Aug-09 02:00 355 16.7
2020-Aug-09 01:45 326 17.2
2020-Aug-09 01:30 278 3 gusting 6 17.8
2020-Aug-09 01:16 294 5 gusting 7 18.3
2020-Aug-09 01:00 291 5 gusting 6 18.3
2020-Aug-09 00:45 269 5 gusting 6 18.3
2020-Aug-09 00:30 267 5 gusting 6 18.3
2020-Aug-09 00:15 259 3 gusting 5 18.9
2020-Aug-09 00:01 257 3 gusting 6 18.9
2020-Aug-08 23:45 260 2 gusting 5 18.9
2020-Aug-08 23:30 254 4 gusting 6 18.3
2020-Aug-08 23:15 260 5 gusting 6 18.3
2020-Aug-08 23:02 246 2 gusting 4 18.9
2020-Aug-08 22:46 235 3 gusting 4 18.9
2020-Aug-08 22:31 225 1 gusting 2 19.4
2020-Aug-08 22:17 229 1 gusting 2 19.4
2020-Aug-08 22:02 229 0 gusting 2 19.4
2020-Aug-08 21:46 229 0 gusting 2 19.4
2020-Aug-08 21:31 229 1 gusting 2 19.4
2020-Aug-08 21:15 229 0 gusting 2 19.4
2020-Aug-08 21:01 211 1 gusting 2 20.0
2020-Aug-08 20:46 204 0 gusting 1 20.0
2020-Aug-08 20:31 204 0 gusting 1 20.0
2020-Aug-08 20:17 204 1 gusting 2 20.6
2020-Aug-08 20:01 204 0 gusting 1 20.6
2020-Aug-08 19:46 204 0 gusting 2 21.1
2020-Aug-08 19:31 204 1 gusting 2 21.1
2020-Aug-08 19:16 204 1 gusting 2 21.7
2020-Aug-08 19:01 204 1 gusting 2 22.8
2020-Aug-08 18:46 204 1 gusting 3 23.3
2020-Aug-08 18:31 189 1 gusting 4 23.3
2020-Aug-08 18:01 162 1 gusting 4 24.4
2020-Aug-08 17:45 167 25.0
2020-Aug-08 17:31 168 2 gusting 4 25.6
2020-Aug-08 17:16 085 0 gusting 3 25.6
2020-Aug-08 17:00 072 0 gusting 3 25.6
2020-Aug-08 16:46 078 0 gusting 3 26.1
2020-Aug-08 16:31 096 1 gusting 5 26.1
2020-Aug-08 16:16 086 2 gusting 6 26.7
2020-Aug-08 16:01 084 2 gusting 5 27.2
2020-Aug-08 15:45 070 1 gusting 7 27.2
2020-Aug-08 15:15 094 27.8
2020-Aug-08 15:02 095 2 gusting 6 26.7
2020-Aug-08 14:45 050 0 gusting 8 27.8
2020-Aug-08 14:16 082 3 gusting 7 27.8
2020-Aug-08 14:01 080 0 gusting 4 27.8
2020-Aug-08 13:46 069 2 gusting 6 27.8
2020-Aug-08 13:30 095 2 gusting 7 27.2
2020-Aug-08 13:15 118 1 gusting 8 28.3
2020-Aug-08 13:00 040 2 gusting 6 28.9
2020-Aug-08 12:45 072 3 gusting 6 27.8
2020-Aug-08 12:30 037 2 gusting 5 27.2
2020-Aug-08 12:15 049 1 gusting 5 27.2
2020-Aug-08 12:00 360 0 gusting 3 27.8
2020-Aug-08 11:46 076 1 gusting 5 27.8
2020-Aug-08 11:30 107 2 gusting 5 27.8
2020-Aug-08 11:15 080 27.2
2020-Aug-08 11:00 074 1 gusting 5 27.2
2020-Aug-08 10:45 190 2 gusting 6 26.7
2020-Aug-08 10:30 109 0 gusting 6 26.1
2020-Aug-08 10:15 221 1 gusting 6 26.1
2020-Aug-08 10:03 143 1 gusting 6 26.1
2020-Aug-08 09:47 090 0 gusting 6 26.1
2020-Aug-08 09:31 120 4 gusting 7 26.1
2020-Aug-08 09:17 086 2 gusting 6 26.1
2020-Aug-08 09:01 061 3 gusting 5 25.6
2020-Aug-08 08:46 103 1 gusting 5 24.4
2020-Aug-08 08:31 098 1 gusting 5 24.4
2020-Aug-08 08:17 087 2 gusting 5 24.4
2020-Aug-08 08:01 115 0 gusting 3 23.9
2020-Aug-08 07:45 121 1 gusting 6 23.3
2020-Aug-08 07:31 092 0 gusting 5 22.8
2020-Aug-08 07:15 138 1 gusting 4 22.2
2020-Aug-08 07:00 109 1 gusting 6 21.1
2020-Aug-08 06:46 132 1 gusting 6 20.6
2020-Aug-08 06:30 136 4 gusting 6 19.4
2020-Aug-08 06:15 090 2 gusting 6 18.9
2020-Aug-08 06:00 109 2 gusting 6 18.3
2020-Aug-08 05:31 115 2 gusting 6 17.8
2020-Aug-08 05:17 102 1 gusting 3 17.2
2020-Aug-08 05:01 114 2 gusting 5 16.1
2020-Aug-08 04:47 113 1 gusting 3 16.1
2020-Aug-08 04:31 111 1 gusting 3 16.7
2020-Aug-08 04:16 135 0 gusting 2 16.7
2020-Aug-08 04:00 136 0 gusting 2 16.7
2020-Aug-08 03:46 130 0 gusting 2 16.7
2020-Aug-08 03:31 133 0 gusting 2 16.1
2020-Aug-08 03:16 138 0 gusting 3 16.1
2020-Aug-08 03:01 136 16.7
2020-Aug-08 02:46 144 16.7
2020-Aug-08 02:31 160 0 gusting 4 16.7
2020-Aug-08 02:15 167 3 gusting 4 16.7
2020-Aug-08 02:00 149 16.7
2020-Aug-08 01:45 159 0 gusting 3 17.2
2020-Aug-08 01:31 140 1 gusting 4 17.2
2020-Aug-08 01:16 173 1 gusting 4 17.2
2020-Aug-08 01:00 142 1 gusting 4 17.2
2020-Aug-08 00:46 142 1 gusting 5 17.2
2020-Aug-08 00:30 126 0 gusting 3 17.2
2020-Aug-08 00:15 096 0 gusting 3 17.8
2020-Aug-08 00:00 136 2 gusting 6 18.3
2020-Aug-07 23:45 152 5 gusting 7 18.3
2020-Aug-07 23:30 124 5 gusting 8 18.3
2020-Aug-07 23:15 170 5 gusting 6 18.9
2020-Aug-07 23:00 180 5 gusting 7 18.9
2020-Aug-07 22:45 185 5 gusting 8 18.9
2020-Aug-07 22:30 200 5 gusting 8 18.9
2020-Aug-07 22:15 170 5 gusting 7 18.9
2020-Aug-07 22:00 159 5 gusting 7 18.9
2020-Aug-07 21:46 179 5 gusting 7 19.4
2020-Aug-07 21:32 175 5 gusting 7 19.4
2020-Aug-07 21:17 195 5 gusting 6 20.0
2020-Aug-07 21:03 178 5 gusting 8 20.0
2020-Aug-07 20:47 172 6 gusting 8 20.0
2020-Aug-07 20:32 154 4 gusting 7 20.0
2020-Aug-07 20:17 134 0 gusting 2 20.0
2020-Aug-07 20:02 136 0 gusting 5 20.6
2020-Aug-07 19:46 117 0 gusting 4 21.1
2020-Aug-07 19:32 171 1 gusting 4 21.1
2020-Aug-07 19:18 153 3 gusting 6 21.7
2020-Aug-07 19:02 172 1 gusting 5 22.2
2020-Aug-07 18:47 130 1 gusting 5 22.8
2020-Aug-07 18:32 159 4 gusting 6 23.3
2020-Aug-07 18:16 134 3 gusting 6 23.9
2020-Aug-07 18:01 117 0 gusting 3 24.4
2020-Aug-07 17:45 085 0 gusting 6 25.0
2020-Aug-07 17:31 115 1 gusting 6 25.6
2020-Aug-07 17:16 124 4 gusting 8 26.7
2020-Aug-07 17:01 127 4 gusting 9 26.7
2020-Aug-07 16:45 101 5 gusting 10 27.2
2020-Aug-07 16:30 117 2 gusting 9 27.2
2020-Aug-07 16:15 061 4 gusting 8 27.2
2020-Aug-07 16:02 118 1 gusting 7 27.8
2020-Aug-07 15:45 192 2 gusting 8 28.3
2020-Aug-07 15:31 161 5 gusting 10 28.3
2020-Aug-07 15:15 159 2 gusting 8 27.8
2020-Aug-07 15:00 143 4 gusting 8 28.3
2020-Aug-07 14:46 063 4 gusting 11 28.3
2020-Aug-07 14:30 191 5 gusting 12 28.3
2020-Aug-07 14:15 162 6 gusting 10 28.9
2020-Aug-07 14:00 177 5 gusting 13 28.9
2020-Aug-07 13:45 165 3 gusting 13 28.9
2020-Aug-07 13:31 069 5 gusting 11 28.9
2020-Aug-07 13:15 200 4 gusting 9 28.9
2020-Aug-07 13:00 238 6 gusting 13 28.3
2020-Aug-07 12:45 180 6 gusting 9 28.9
2020-Aug-07 12:30 211 4 gusting 10 28.3
2020-Aug-07 12:15 165 5 gusting 13 28.3
2020-Aug-07 12:01 185 6 gusting 11 28.9
2020-Aug-07 11:45 181 7 gusting 9 28.3
2020-Aug-07 11:30 042 2 gusting 9 28.3
2020-Aug-07 11:15 180 7 gusting 10 27.2
2020-Aug-07 11:00 151 4 gusting 12 27.2
2020-Aug-07 10:45 155 4 gusting 12 27.8
2020-Aug-07 10:30 144 4 gusting 13 27.2
2020-Aug-07 10:15 113 1 gusting 8 27.2
2020-Aug-07 10:02 186 4 gusting 9 26.7
2020-Aug-07 09:47 069 2 gusting 8 26.7
2020-Aug-07 09:31 166 5 gusting 9 26.1
2020-Aug-07 09:18 165 3 gusting 9 25.6
2020-Aug-07 09:01 115 4 gusting 8 25.0
2020-Aug-07 08:45 175 5 gusting 8 24.4
2020-Aug-07 08:31 188 4 gusting 7 23.9
2020-Aug-07 08:15 190 5 gusting 8 23.3
2020-Aug-07 08:01 165 6 gusting 8 22.8